Lexington, Illinois
Current Conditions -  °F | °C
As of 10:56 AM on Friday 24 Oct 2014 (Local Time) from KBMI Reporting Station
Clear Clear  
Wind Chill: 62°   Ceiling: Unl
Heat Index: 62°   Visibility: 10mi
Dew Point: 55°   Wind: 5mph
Humidity: 78%   Direction: 140°SE
Pressure: 30.09"   Gusts: NA
Location:  40.64°N, 88.78°W
Report Text: KBMI 241556Z 14004KT 10SM CLR 17/13 A3009 RMK AO2 T01660127 SLP188
Loading
Personal Weather Stations






























Interactive Weather Map
Tropical Storm Tracking
New forecast layout! Learn more

10-Day Weather Forecast

Advertisements
Track Severe Weather on mobile